sensor_id;sensor_type;location;lat;lon;timestamp;temperature;humidity
21489;DHT22;10906;45.194;5.684;2023-10-13T04:34:05;14.80;92.30
21489;DHT22;10906;45.194;5.684;2023-10-13T04:36:59;14.70;92.40
21489;DHT22;10906;45.194;5.684;2023-10-13T04:40:03;14.60;92.60
21489;DHT22;10906;45.194;5.684;2023-10-13T04:42:54;14.50;92.90
21489;DHT22;10906;45.194;5.684;2023-10-13T04:45:40;14.50;93.00
21489;DHT22;10906;45.194;5.684;2023-10-13T04:48:38;14.50;93.10
21489;DHT22;10906;45.194;5.684;2023-10-13T04:51:23;14.40;92.80
21489;DHT22;10906;45.194;5.684;2023-10-13T04:54:30;14.50;93.10
21489;DHT22;10906;45.194;5.684;2023-10-13T04:57:29;14.50;92.90
21489;DHT22;10906;45.194;5.684;2023-10-13T05:00:31;14.50;93.20
21489;DHT22;10906;45.194;5.684;2023-10-13T05:03:39;14.40;93.00
21489;DHT22;10906;45.194;5.684;2023-10-13T05:06:42;14.40;93.30
21489;DHT22;10906;45.194;5.684;2023-10-13T05:09:30;14.40;93.50
21489;DHT22;10906;45.194;5.684;2023-10-13T05:12:34;14.30;93.20
21489;DHT22;10906;45.194;5.684;2023-10-13T05:15:58;14.40;93.70
21489;DHT22;10906;45.194;5.684;2023-10-13T05:19:00;14.30;93.40
21489;DHT22;10906;45.194;5.684;2023-10-13T05:22:03;14.30;93.90
21489;DHT22;10906;45.194;5.684;2023-10-13T05:25:06;14.30;93.90
21489;DHT22;10906;45.194;5.684;2023-10-13T05:28:09;14.30;94.10
21489;DHT22;10906;45.194;5.684;2023-10-13T05:31:12;14.30;94.10
21489;DHT22;10906;45.194;5.684;2023-10-13T05:34:15;14.20;94.10
21489;DHT22;10906;45.194;5.684;2023-10-13T05:37:28;14.20;94.30
21489;DHT22;10906;45.194;5.684;2023-10-13T05:40:31;14.10;94.60
21489;DHT22;10906;45.194;5.684;2023-10-13T05:43:34;14.00;94.50
21489;DHT22;10906;45.194;5.684;2023-10-13T05:46:37;14.00;94.60
21489;DHT22;10906;45.194;5.684;2023-10-13T05:49:21;13.90;94.90
21489;DHT22;10906;45.194;5.684;2023-10-13T05:52:24;13.80;94.80
21489;DHT22;10906;45.194;5.684;2023-10-13T05:55:28;13.70;95.30
21489;DHT22;10906;45.194;5.684;2023-10-13T05:58:31;13.70;95.00
21489;DHT22;10906;45.194;5.684;2023-10-13T06:01:48;13.70;95.10
21489;DHT22;10906;45.194;5.684;2023-10-13T06:04:50;13.70;95.00
21489;DHT22;10906;45.194;5.684;2023-10-13T06:07:53;13.70;95.30
21489;DHT22;10906;45.194;5.684;2023-10-13T06:11:02;13.60;95.10
21489;DHT22;10906;45.194;5.684;2023-10-13T06:14:05;13.60;95.30
21489;DHT22;10906;45.194;5.684;2023-10-13T06:17:08;13.60;95.60
21489;DHT22;10906;45.194;5.684;2023-10-13T06:20:11;13.60;95.40
21489;DHT22;10906;45.194;5.684;2023-10-13T06:23:14;13.50;95.50
21489;DHT22;10906;45.194;5.684;2023-10-13T06:26:17;13.50;95.70
21489;DHT22;10906;45.194;5.684;2023-10-13T06:29:19;13.50;95.70
21489;DHT22;10906;45.194;5.684;2023-10-13T06:32:05;13.60;95.80
21489;DHT22;10906;45.194;5.684;2023-10-13T06:34:55;13.60;95.90
21489;DHT22;10906;45.194;5.684;2023-10-13T06:37:52;13.60;96.00
21489;DHT22;10906;45.194;5.684;2023-10-13T06:40:36;13.60;96.00
21489;DHT22;10906;45.194;5.684;2023-10-13T06:43:22;13.60;96.60
21489;DHT22;10906;45.194;5.684;2023-10-13T06:46:08;13.70;96.80
21489;DHT22;10906;45.194;5.684;2023-10-13T06:48:58;13.70;96.70
21489;DHT22;10906;45.194;5.684;2023-10-13T06:51:44;13.70;96.60
21489;DHT22;10906;45.194;5.684;2023-10-13T06:54:30;13.70;96.30
21489;DHT22;10906;45.194;5.684;2023-10-13T06:57:17;13.70;96.30
21489;DHT22;10906;45.194;5.684;2023-10-13T07:00:04;13.80;96.20
21489;DHT22;10906;45.194;5.684;2023-10-13T07:02:52;13.80;96.20
21489;DHT22;10906;45.194;5.684;2023-10-13T07:05:37;13.90;96.40
21489;DHT22;10906;45.194;5.684;2023-10-13T07:08:22;13.90;96.00
21489;DHT22;10906;45.194;5.684;2023-10-13T07:11:07;13.90;96.30
21489;DHT22;10906;45.194;5.684;2023-10-13T07:14:02;14.00;97.30
21489;DHT22;10906;45.194;5.684;2023-10-13T07:17:01;14.20;97.10
21489;DHT22;10906;45.194;5.684;2023-10-13T07:19:46;14.20;97.20
21489;DHT22;10906;45.194;5.684;2023-10-13T07:22:37;14.30;96.50
21489;DHT22;10906;45.194;5.684;2023-10-13T07:25:24;14.40;96.50
21489;DHT22;10906;45.194;5.684;2023-10-13T07:28:09;14.40;96.60
21489;DHT22;10906;45.194;5.684;2023-10-13T07:30:54;14.50;97.50
21489;DHT22;10906;45.194;5.684;2023-10-13T07:33:39;14.60;95.90
21489;DHT22;10906;45.194;5.684;2023-10-13T07:36:25;14.70;95.80
21489;DHT22;10906;45.194;5.684;2023-10-13T07:39:15;14.80;95.70
21489;DHT22;10906;45.194;5.684;2023-10-13T07:42:07;14.90;96.00
21489;DHT22;10906;45.194;5.684;2023-10-13T07:44:52;15.00;95.30
21489;DHT22;10906;45.194;5.684;2023-10-13T07:47:39;15.10;95.00
21489;DHT22;10906;45.194;5.684;2023-10-13T07:50:23;15.20;94.70
21489;DHT22;10906;45.194;5.684;2023-10-13T07:53:11;15.30;94.70
21489;DHT22;10906;45.194;5.684;2023-10-13T07:56:07;15.50;94.50
21489;DHT22;10906;45.194;5.684;2023-10-13T07:58:51;15.70;94.60
21489;DHT22;10906;45.194;5.684;2023-10-13T08:01:45;15.90;94.40
21489;DHT22;10906;45.194;5.684;2023-10-13T08:04:29;16.10;94.10
21489;DHT22;10906;45.194;5.684;2023-10-13T08:07:13;16.30;94.20
21489;DHT22;10906;45.194;5.684;2023-10-13T08:09:58;16.60;93.90
21489;DHT22;10906;45.194;5.684;2023-10-13T08:12:43;16.80;93.70
21489;DHT22;10906;45.194;5.684;2023-10-13T08:15:28;17.00;94.10
21489;DHT22;10906;45.194;5.684;2023-10-13T08:18:18;17.10;94.40
21489;DHT22;10906;45.194;5.684;2023-10-13T08:21:14;17.30;93.70
21489;DHT22;10906;45.194;5.684;2023-10-13T08:24:04;17.50;93.60
21489;DHT22;10906;45.194;5.684;2023-10-13T08:26:51;17.60;93.10
21489;DHT22;10906;45.194;5.684;2023-10-13T08:30:02;17.60;93.90
21489;DHT22;10906;45.194;5.684;2023-10-13T08:32:46;17.70;94.20
21489;DHT22;10906;45.194;5.684;2023-10-13T08:35:38;17.90;93.50
21489;DHT22;10906;45.194;5.684;2023-10-13T08:38:38;18.10;93.00
21489;DHT22;10906;45.194;5.684;2023-10-13T08:41:35;18.20;92.60
21489;DHT22;10906;45.194;5.684;2023-10-13T08:44:43;18.20;92.70
21489;DHT22;10906;45.194;5.684;2023-10-13T08:47:29;18.30;92.80
21489;DHT22;10906;45.194;5.684;2023-10-13T08:50:21;18.50;92.70
21489;DHT22;10906;45.194;5.684;2023-10-13T08:53:25;18.60;92.50
21489;DHT22;10906;45.194;5.684;2023-10-13T08:56:15;18.80;92.50
21489;DHT22;10906;45.194;5.684;2023-10-13T08:59:15;19.00;91.10
21489;DHT22;10906;45.194;5.684;2023-10-13T09:02:13;18.90;91.00
21489;DHT22;10906;45.194;5.684;2023-10-13T09:05:01;19.00;91.50
21489;DHT22;10906;45.194;5.684;2023-10-13T09:07:54;19.20;91.20
21489;DHT22;10906;45.194;5.684;2023-10-13T09:10:52;19.30;91.00
21489;DHT22;10906;45.194;5.684;2023-10-13T09:13:58;19.30;90.60
21489;DHT22;10906;45.194;5.684;2023-10-13T09:16:50;19.70;90.40
21489;DHT22;10906;45.194;5.684;2023-10-13T09:19:47;20.80;92.00
21489;DHT22;10906;45.194;5.684;2023-10-13T09:22:31;19.60;89.20
21489;DHT22;10906;45.194;5.684;2023-10-13T09:25:22;19.80;90.20
21489;DHT22;10906;45.194;5.684;2023-10-13T09:28:14;20.10;90.20
21489;DHT22;10906;45.194;5.684;2023-10-13T09:31:06;20.10;87.00
21489;DHT22;10906;45.194;5.684;2023-10-13T09:33:53;20.10;88.70
21489;DHT22;10906;45.194;5.684;2023-10-13T09:36:39;20.10;88.50
21489;DHT22;10906;45.194;5.684;2023-10-13T09:39:24;20.00;85.40
21489;DHT22;10906;45.194;5.684;2023-10-13T09:42:19;19.90;87.10
21489;DHT22;10906;45.194;5.684;2023-10-13T09:45:07;20.20;86.00
21489;DHT22;10906;45.194;5.684;2023-10-13T09:47:58;20.30;84.50
21489;DHT22;10906;45.194;5.684;2023-10-13T09:50:50;20.60;83.50
21489;DHT22;10906;45.194;5.684;2023-10-13T09:53:34;20.70;82.70
21489;DHT22;10906;45.194;5.684;2023-10-13T09:56:22;20.90;82.90
21489;DHT22;10906;45.194;5.684;2023-10-13T09:59:11;20.90;81.80
21489;DHT22;10906;45.194;5.684;2023-10-13T10:01:58;21.00;81.40
21489;DHT22;10906;45.194;5.684;2023-10-13T10:04:50;21.20;82.30
21489;DHT22;10906;45.194;5.684;2023-10-13T10:07:35;21.40;79.70
21489;DHT22;10906;45.194;5.684;2023-10-13T10:10:21;21.40;79.20
21489;DHT22;10906;45.194;5.684;2023-10-13T10:13:12;21.50;79.50
21489;DHT22;10906;45.194;5.684;2023-10-13T10:16:02;21.60;77.70
21489;DHT22;10906;45.194;5.684;2023-10-13T10:18:59;21.90;78.70
21489;DHT22;10906;45.194;5.684;2023-10-13T10:21:43;22.20;78.60
21489;DHT22;10906;45.194;5.684;2023-10-13T10:24:27;22.10;79.20
21489;DHT22;10906;45.194;5.684;2023-10-13T10:27:24;22.30;80.80
21489;DHT22;10906;45.194;5.684;2023-10-13T10:30:09;22.70;80.40
21489;DHT22;10906;45.194;5.684;2023-10-13T10:32:57;22.80;79.10
21489;DHT22;10906;45.194;5.684;2023-10-13T10:35:45;22.70;81.10
21489;DHT22;10906;45.194;5.684;2023-10-13T10:41:01;22.90;80.40
21489;DHT22;10906;45.194;5.684;2023-10-13T10:43:48;22.80;80.00
21489;DHT22;10906;45.194;5.684;2023-10-13T10:46:32;22.80;79.30
21489;DHT22;10906;45.194;5.684;2023-10-13T10:49:26;22.90;81.50
21489;DHT22;10906;45.194;5.684;2023-10-13T10:52:16;22.90;79.90
21489;DHT22;10906;45.194;5.684;2023-10-13T10:55:03;23.00;82.10
21489;DHT22;10906;45.194;5.684;2023-10-13T10:57:58;23.00;82.30
21489;DHT22;10906;45.194;5.684;2023-10-13T11:00:42;23.00;82.40
21489;DHT22;10906;45.194;5.684;2023-10-13T11:03:34;23.00;84.80
21489;DHT22;10906;45.194;5.684;2023-10-13T11:06:21;22.90;84.00
21489;DHT22;10906;45.194;5.684;2023-10-13T11:09:08;22.90;83.30
21489;DHT22;10906;45.194;5.684;2023-10-13T11:18:05;23.10;84.60
21489;DHT22;10906;45.194;5.684;2023-10-13T11:20:57;23.20;82.80
21489;DHT22;10906;45.194;5.684;2023-10-13T11:23:41;23.30;83.40
21489;DHT22;10906;45.194;5.684;2023-10-13T11:26:35;23.30;81.40
21489;DHT22;10906;45.194;5.684;2023-10-13T11:29:32;23.50;79.70
21489;DHT22;10906;45.194;5.684;2023-10-13T11:32:19;23.50;82.40
21489;DHT22;10906;45.194;5.684;2023-10-13T11:35:06;23.60;81.20
21489;DHT22;10906;45.194;5.684;2023-10-13T11:37:55;23.70;78.30
21489;DHT22;10906;45.194;5.684;2023-10-13T11:40:40;23.80;82.10
21489;DHT22;10906;45.194;5.684;2023-10-13T11:43:28;23.80;81.40
21489;DHT22;10906;45.194;5.684;2023-10-13T11:46:12;23.90;83.00
21489;DHT22;10906;45.194;5.684;2023-10-13T11:48:57;24.00;84.00
21489;DHT22;10906;45.194;5.684;2023-10-13T11:51:49;24.00;83.80
21489;DHT22;10906;45.194;5.684;2023-10-13T11:54:33;24.20;84.60
21489;DHT22;10906;45.194;5.684;2023-10-13T11:57:20;24.20;83.30
21489;DHT22;10906;45.194;5.684;2023-10-13T12:00:05;24.20;81.90
21489;DHT22;10906;45.194;5.684;2023-10-13T12:03:08;24.30;84.20
21489;DHT22;10906;45.194;5.684;2023-10-13T12:06:11;24.40;82.00
21489;DHT22;10906;45.194;5.684;2023-10-13T12:09:09;24.40;84.40
21489;DHT22;10906;45.194;5.684;2023-10-13T12:12:00;24.50;81.60
21489;DHT22;10906;45.194;5.684;2023-10-13T12:14:45;24.60;83.90
21489;DHT22;10906;45.194;5.684;2023-10-13T12:17:41;24.60;82.50
21489;DHT22;10906;45.194;5.684;2023-10-13T12:20:29;24.60;82.80
21489;DHT22;10906;45.194;5.684;2023-10-13T12:23:20;24.80;83.50
21489;DHT22;10906;45.194;5.684;2023-10-13T12:26:15;24.80;84.00
21489;DHT22;10906;45.194;5.684;2023-10-13T12:29:16;24.80;84.20
21489;DHT22;10906;45.194;5.684;2023-10-13T12:32:06;25.00;83.80
21489;DHT22;10906;45.194;5.684;2023-10-13T12:34:57;25.10;82.70
21489;DHT22;10906;45.194;5.684;2023-10-13T12:38:01;25.20;82.70
21489;DHT22;10906;45.194;5.684;2023-10-13T12:41:00;25.20;82.00
21489;DHT22;10906;45.194;5.684;2023-10-13T12:44:03;25.30;81.10
21489;DHT22;10906;45.194;5.684;2023-10-13T12:47:07;25.40;82.60
21489;DHT22;10906;45.194;5.684;2023-10-13T12:50:10;25.40;80.90
21489;DHT22;10906;45.194;5.684;2023-10-13T12:52:58;25.50;80.40
21489;DHT22;10906;45.194;5.684;2023-10-13T12:55:43;25.50;80.20
21489;DHT22;10906;45.194;5.684;2023-10-13T12:58:27;25.60;81.50
21489;DHT22;10906;45.194;5.684;2023-10-13T13:01:13;25.70;81.10
21489;DHT22;10906;45.194;5.684;2023-10-13T13:03:58;25.70;77.80
21489;DHT22;10906;45.194;5.684;2023-10-13T13:06:42;25.80;71.20
21489;DHT22;10906;45.194;5.684;2023-10-13T13:09:27;26.00;76.60
21489;DHT22;10906;45.194;5.684;2023-10-13T13:12:11;26.10;75.50
21489;DHT22;10906;45.194;5.684;2023-10-13T13:14:58;26.10;78.80
21489;DHT22;10906;45.194;5.684;2023-10-13T13:17:44;26.10;75.70
21489;DHT22;10906;45.194;5.684;2023-10-13T13:20:29;26.10;73.80
21489;DHT22;10906;45.194;5.684;2023-10-13T13:23:14;26.10;76.50
21489;DHT22;10906;45.194;5.684;2023-10-13T13:25:59;26.40;54.30
21489;DHT22;10906;45.194;5.684;2023-10-13T13:28:43;26.70;53.20
21489;DHT22;10906;45.194;5.684;2023-10-13T13:31:28;27.10;51.90
21489;DHT22;10906;45.194;5.684;2023-10-13T13:34:15;27.40;50.60
21489;DHT22;10906;45.194;5.684;2023-10-13T13:36:59;27.50;48.50
21489;DHT22;10906;45.194;5.684;2023-10-13T13:39:45;27.70;52.60
21489;DHT22;10906;45.194;5.684;2023-10-13T13:42:30;27.60;54.60
21489;DHT22;10906;45.194;5.684;2023-10-13T13:45:20;27.60;48.10
21489;DHT22;10906;45.194;5.684;2023-10-13T13:48:26;27.70;45.80
21489;DHT22;10906;45.194;5.684;2023-10-13T13:51:14;27.90;41.50
21489;DHT22;10906;45.194;5.684;2023-10-13T13:53:59;28.00;45.10
21489;DHT22;10906;45.194;5.684;2023-10-13T13:56:46;28.00;45.30
21489;DHT22;10906;45.194;5.684;2023-10-13T13:59:31;28.10;46.00
21489;DHT22;10906;45.194;5.684;2023-10-13T14:02:17;28.10;45.00
21489;DHT22;10906;45.194;5.684;2023-10-13T14:05:05;28.10;42.60
21489;DHT22;10906;45.194;5.684;2023-10-13T14:07:59;28.10;45.40
21489;DHT22;10906;45.194;5.684;2023-10-13T14:10:43;28.20;44.10
21489;DHT22;10906;45.194;5.684;2023-10-13T14:13:47;28.00;49.80
21489;DHT22;10906;45.194;5.684;2023-10-13T14:16:35;28.10;52.80
21489;DHT22;10906;45.194;5.684;2023-10-13T14:19:21;27.90;62.00
21489;DHT22;10906;45.194;5.684;2023-10-13T14:22:10;27.90;62.60
21489;DHT22;10906;45.194;5.684;2023-10-13T14:24:56;27.60;65.90
21489;DHT22;10906;45.194;5.684;2023-10-13T14:27:43;27.50;63.40
21489;DHT22;10906;45.194;5.684;2023-10-13T14:30:27;27.50;62.80
21489;DHT22;10906;45.194;5.684;2023-10-13T14:33:15;27.40;51.90
21489;DHT22;10906;45.194;5.684;2023-10-13T14:35:59;27.50;49.10
21489;DHT22;10906;45.194;5.684;2023-10-13T14:38:44;27.70;44.40
21489;DHT22;10906;45.194;5.684;2023-10-13T14:41:31;27.80;46.90
21489;DHT22;10906;45.194;5.684;2023-10-13T14:44:15;27.90;46.10
21489;DHT22;10906;45.194;5.684;2023-10-13T14:47:03;27.90;46.60
21489;DHT22;10906;45.194;5.684;2023-10-13T14:49:51;28.00;47.50
21489;DHT22;10906;45.194;5.684;2023-10-13T14:52:38;28.10;46.10
21489;DHT22;10906;45.194;5.684;2023-10-13T14:55:23;28.10;42.40
21489;DHT22;10906;45.194;5.684;2023-10-13T14:58:22;28.10;45.10
21489;DHT22;10906;45.194;5.684;2023-10-13T15:01:17;28.20;43.60
21489;DHT22;10906;45.194;5.684;2023-10-13T15:04:01;28.90;43.60
21489;DHT22;10906;45.194;5.684;2023-10-13T15:06:46;30.20;42.00
21489;DHT22;10906;45.194;5.684;2023-10-13T15:09:30;31.40;42.20
21489;DHT22;10906;45.194;5.684;2023-10-13T15:12:14;31.60;42.60
21489;DHT22;10906;45.194;5.684;2023-10-13T15:14:58;30.80;40.80
21489;DHT22;10906;45.194;5.684;2023-10-13T15:17:43;30.70;39.30
21489;DHT22;10906;45.194;5.684;2023-10-13T15:20:27;30.10;42.80
21489;DHT22;10906;45.194;5.684;2023-10-13T15:23:12;29.70;44.70
21489;DHT22;10906;45.194;5.684;2023-10-13T15:26:03;29.70;43.50
21489;DHT22;10906;45.194;5.684;2023-10-13T15:28:50;31.10;42.60
21489;DHT22;10906;45.194;5.684;2023-10-13T15:31:39;31.20;39.70
21489;DHT22;10906;45.194;5.684;2023-10-13T15:34:25;31.10;43.80
21489;DHT22;10906;45.194;5.684;2023-10-13T15:37:11;30.00;44.20
21489;DHT22;10906;45.194;5.684;2023-10-13T15:39:56;29.10;41.60
21489;DHT22;10906;45.194;5.684;2023-10-13T15:42:43;28.50;47.10
21489;DHT22;10906;45.194;5.684;2023-10-13T15:45:30;27.90;47.50
21489;DHT22;10906;45.194;5.684;2023-10-13T15:48:22;27.90;47.90
21489;DHT22;10906;45.194;5.684;2023-10-13T15:51:10;27.80;45.20
21489;DHT22;10906;45.194;5.684;2023-10-13T15:53:56;27.60;48.60
21489;DHT22;10906;45.194;5.684;2023-10-13T15:56:44;27.40;49.10
21489;DHT22;10906;45.194;5.684;2023-10-13T15:59:28;27.30;48.50
21489;DHT22;10906;45.194;5.684;2023-10-13T16:02:13;27.10;49.10
21489;DHT22;10906;45.194;5.684;2023-10-13T16:05:00;27.10;47.10
21489;DHT22;10906;45.194;5.684;2023-10-13T16:07:44;27.10;51.60
21489;DHT22;10906;45.194;5.684;2023-10-13T16:10:29;27.00;47.40
21489;DHT22;10906;45.194;5.684;2023-10-13T16:13:13;26.90;49.00
21489;DHT22;10906;45.194;5.684;2023-10-13T16:16:04;26.90;49.10
21489;DHT22;10906;45.194;5.684;2023-10-13T16:18:48;26.80;50.20
21489;DHT22;10906;45.194;5.684;2023-10-13T16:21:32;26.60;50.90
21489;DHT22;10906;45.194;5.684;2023-10-13T16:24:23;26.70;49.70
21489;DHT22;10906;45.194;5.684;2023-10-13T16:27:07;26.70;50.40
21489;DHT22;10906;45.194;5.684;2023-10-13T16:29:52;26.60;51.10
21489;DHT22;10906;45.194;5.684;2023-10-13T16:32:38;26.60;49.60
21489;DHT22;10906;45.194;5.684;2023-10-13T16:35:22;26.60;48.80
21489;DHT22;10906;45.194;5.684;2023-10-13T16:38:06;26.60;51.50
21489;DHT22;10906;45.194;5.684;2023-10-13T16:40:51;26.60;50.20
21489;DHT22;10906;45.194;5.684;2023-10-13T16:43:35;26.50;54.00
21489;DHT22;10906;45.194;5.684;2023-10-13T16:46:19;26.30;52.70
21489;DHT22;10906;45.194;5.684;2023-10-13T16:49:07;26.20;52.90
21489;DHT22;10906;45.194;5.684;2023-10-13T16:51:51;26.10;52.20
21489;DHT22;10906;45.194;5.684;2023-10-13T16:54:35;26.30;52.40
21489;DHT22;10906;45.194;5.684;2023-10-13T16:57:20;26.30;51.50
21489;DHT22;10906;45.194;5.684;2023-10-13T17:00:04;26.30;51.70
21489;DHT22;10906;45.194;5.684;2023-10-13T17:02:54;26.30;52.00
21489;DHT22;10906;45.194;5.684;2023-10-13T17:05:39;26.20;52.90
21489;DHT22;10906;45.194;5.684;2023-10-13T17:08:24;26.20;52.70
21489;DHT22;10906;45.194;5.684;2023-10-13T17:11:09;26.30;54.50
21489;DHT22;10906;45.194;5.684;2023-10-13T17:13:57;26.30;56.80
21489;DHT22;10906;45.194;5.684;2023-10-13T17:16:43;26.10;56.00
21489;DHT22;10906;45.194;5.684;2023-10-13T17:19:29;26.00;56.50
21489;DHT22;10906;45.194;5.684;2023-10-13T17:22:13;25.60;59.00
21489;DHT22;10906;45.194;5.684;2023-10-13T17:24:58;25.50;57.90
21489;DHT22;10906;45.194;5.684;2023-10-13T17:27:45;25.40;62.20
21489;DHT22;10906;45.194;5.684;2023-10-13T17:30:29;25.00;65.40
21489;DHT22;10906;45.194;5.684;2023-10-13T17:33:14;24.80;65.90
21489;DHT22;10906;45.194;5.684;2023-10-13T17:35:59;24.60;66.60
21489;DHT22;10906;45.194;5.684;2023-10-13T17:38:43;24.20;68.30
21489;DHT22;10906;45.194;5.684;2023-10-13T17:41:28;24.10;69.20
21489;DHT22;10906;45.194;5.684;2023-10-13T17:44:16;24.10;69.70
21489;DHT22;10906;45.194;5.684;2023-10-13T17:47:01;23.90;69.90
21489;DHT22;10906;45.194;5.684;2023-10-13T17:49:45;23.80;70.40
21489;DHT22;10906;45.194;5.684;2023-10-13T17:52:29;23.70;71.30
21489;DHT22;10906;45.194;5.684;2023-10-13T17:55:13;23.60;71.10
21489;DHT22;10906;45.194;5.684;2023-10-13T17:58:00;23.50;71.90
21489;DHT22;10906;45.194;5.684;2023-10-13T18:00:44;23.40;71.70
21489;DHT22;10906;45.194;5.684;2023-10-13T18:03:31;23.30;71.80
21489;DHT22;10906;45.194;5.684;2023-10-13T18:06:18;23.30;72.00
21489;DHT22;10906;45.194;5.684;2023-10-13T18:09:03;23.10;73.30
21489;DHT22;10906;45.194;5.684;2023-10-13T18:11:49;23.10;72.80
21489;DHT22;10906;45.194;5.684;2023-10-13T18:14:37;23.00;72.70
21489;DHT22;10906;45.194;5.684;2023-10-13T18:17:21;23.00;73.70
21489;DHT22;10906;45.194;5.684;2023-10-13T18:20:06;22.80;73.80
21489;DHT22;10906;45.194;5.684;2023-10-13T18:22:54;22.70;74.40
21489;DHT22;10906;45.194;5.684;2023-10-13T18:25:43;22.60;75.60
21489;DHT22;10906;45.194;5.684;2023-10-13T18:28:43;22.60;75.30
21489;DHT22;10906;45.194;5.684;2023-10-13T18:31:31;22.60;75.40
21489;DHT22;10906;45.194;5.684;2023-10-13T18:34:25;22.60;76.20
21489;DHT22;10906;45.194;5.684;2023-10-13T18:40:54;22.40;76.30
21489;DHT22;10906;45.194;5.684;2023-10-13T18:43:39;22.30;76.60
21489;DHT22;10906;45.194;5.684;2023-10-13T18:46:23;22.30;76.50
21489;DHT22;10906;45.194;5.684;2023-10-13T18:49:10;22.20;77.50
21489;DHT22;10906;45.194;5.684;2023-10-13T18:51:55;22.10;77.80
21489;DHT22;10906;45.194;5.684;2023-10-13T18:54:39;22.00;77.70
21489;DHT22;10906;45.194;5.684;2023-10-13T18:57:24;22.00;77.70
21489;DHT22;10906;45.194;5.684;2023-10-13T19:00:09;21.90;77.50
21489;DHT22;10906;45.194;5.684;2023-10-13T19:02:58;21.90;77.60
21489;DHT22;10906;45.194;5.684;2023-10-13T19:05:42;21.80;78.40
21489;DHT22;10906;45.194;5.684;2023-10-13T19:11:15;21.60;79.20
21489;DHT22;10906;45.194;5.684;2023-10-13T19:14:00;21.50;79.50
21489;DHT22;10906;45.194;5.684;2023-10-13T19:16:45;21.40;80.30
21489;DHT22;10906;45.194;5.684;2023-10-13T19:19:30;21.30;79.90
21489;DHT22;10906;45.194;5.684;2023-10-13T19:22:16;21.20;79.40
21489;DHT22;10906;45.194;5.684;2023-10-13T19:25:02;21.20;80.00
21489;DHT22;10906;45.194;5.684;2023-10-13T19:27:47;21.10;80.80
21489;DHT22;10906;45.194;5.684;2023-10-13T19:30:37;21.00;80.70
21489;DHT22;10906;45.194;5.684;2023-10-13T19:33:22;21.00;81.80
21489;DHT22;10906;45.194;5.684;2023-10-13T19:36:06;21.00;82.20
21489;DHT22;10906;45.194;5.684;2023-10-13T19:38:50;20.90;81.50
21489;DHT22;10906;45.194;5.684;2023-10-13T19:41:35;20.80;81.80
21489;DHT22;10906;45.194;5.684;2023-10-13T19:44:20;20.70;82.10
21489;DHT22;10906;45.194;5.684;2023-10-13T19:47:04;20.70;81.90
21489;DHT22;10906;45.194;5.684;2023-10-13T19:49:48;20.60;82.70
21489;DHT22;10906;45.194;5.684;2023-10-13T19:52:35;20.60;82.70
21489;DHT22;10906;45.194;5.684;2023-10-13T19:55:19;20.50;82.80
21489;DHT22;10906;45.194;5.684;2023-10-13T19:58:04;20.40;82.90
21489;DHT22;10906;45.194;5.684;2023-10-13T20:00:48;20.30;83.50
21489;DHT22;10906;45.194;5.684;2023-10-13T20:03:39;20.30;83.60
21489;DHT22;10906;45.194;5.684;2023-10-13T20:06:28;20.20;84.90
21489;DHT22;10906;45.194;5.684;2023-10-13T20:09:12;20.10;83.30
21489;DHT22;10906;45.194;5.684;2023-10-13T20:12:08;20.10;82.80
21489;DHT22;10906;45.194;5.684;2023-10-13T20:14:52;20.10;83.30
21489;DHT22;10906;45.194;5.684;2023-10-13T20:17:38;20.20;80.90
21489;DHT22;10906;45.194;5.684;2023-10-13T20:20:22;20.40;80.40
21489;DHT22;10906;45.194;5.684;2023-10-13T20:23:12;20.50;79.90
21489;DHT22;10906;45.194;5.684;2023-10-13T20:25:56;20.70;80.00
21489;DHT22;10906;45.194;5.684;2023-10-13T20:28:41;20.70;79.50
21489;DHT22;10906;45.194;5.684;2023-10-13T20:31:25;20.80;77.90
21489;DHT22;10906;45.194;5.684;2023-10-13T20:34:09;21.00;78.00
21489;DHT22;10906;45.194;5.684;2023-10-13T20:36:57;21.20;76.80
21489;DHT22;10906;45.194;5.684;2023-10-13T20:39:42;21.40;76.50
21489;DHT22;10906;45.194;5.684;2023-10-13T20:42:30;21.60;74.50
21489;DHT22;10906;45.194;5.684;2023-10-13T20:45:15;21.70;76.30
21489;DHT22;10906;45.194;5.684;2023-10-13T20:48:05;21.70;76.90
21489;DHT22;10906;45.194;5.684;2023-10-13T20:50:55;21.50;77.10
21489;DHT22;10906;45.194;5.684;2023-10-13T20:53:42;21.40;75.60
21489;DHT22;10906;45.194;5.684;2023-10-13T20:56:27;21.60;75.30
21489;DHT22;10906;45.194;5.684;2023-10-13T20:59:11;21.90;75.30
21489;DHT22;10906;45.194;5.684;2023-10-13T21:01:59;21.90;75.90
21489;DHT22;10906;45.194;5.684;2023-10-13T21:04:48;21.90;74.30
21489;DHT22;10906;45.194;5.684;2023-10-13T21:07:32;22.10;72.80
21489;DHT22;10906;45.194;5.684;2023-10-13T21:10:16;22.10;73.80
21489;DHT22;10906;45.194;5.684;2023-10-13T21:13:01;22.30;72.20
21489;DHT22;10906;45.194;5.684;2023-10-13T21:15:46;22.70;71.80
21489;DHT22;10906;45.194;5.684;2023-10-13T21:18:30;22.60;70.90
21489;DHT22;10906;45.194;5.684;2023-10-13T21:21:15;22.70;71.50
21489;DHT22;10906;45.194;5.684;2023-10-13T21:24:03;22.80;70.30
21489;DHT22;10906;45.194;5.684;2023-10-13T21:26:53;22.90;69.40
21489;DHT22;10906;45.194;5.684;2023-10-13T21:29:38;22.90;69.30
21489;DHT22;10906;45.194;5.684;2023-10-13T21:32:24;23.00;69.40
21489;DHT22;10906;45.194;5.684;2023-10-13T21:38:49;23.20;69.10
21489;DHT22;10906;45.194;5.684;2023-10-13T21:41:43;23.20;69.30
21489;DHT22;10906;45.194;5.684;2023-10-13T21:44:29;23.20;69.60
21489;DHT22;10906;45.194;5.684;2023-10-13T21:47:14;23.10;69.60
21489;DHT22;10906;45.194;5.684;2023-10-13T21:49:58;23.10;70.20
21489;DHT22;10906;45.194;5.684;2023-10-13T21:52:43;23.00;70.80
21489;DHT22;10906;45.194;5.684;2023-10-13T21:55:28;23.00;72.10
21489;DHT22;10906;45.194;5.684;2023-10-13T21:58:13;23.00;71.30
